createdAt,value
2018-05-25T03:02:37.878Z,9.60
2018-05-25T03:05:05.917Z,8.97
2018-05-25T03:07:33.980Z,8.43
2018-05-25T03:10:02.201Z,9.00
2018-05-25T03:12:30.259Z,8.83
2018-05-25T03:14:58.306Z,8.20
2018-05-25T03:17:26.613Z,8.00
2018-05-25T03:19:54.658Z,8.23
2018-05-25T03:22:22.701Z,6.93
2018-05-25T03:24:50.920Z,7.53
2018-05-25T03:27:18.965Z,7.67
2018-05-25T03:29:47.013Z,7.53
2018-05-25T03:32:15.118Z,7.13
2018-05-25T03:34:43.153Z,7.67
2018-05-25T03:37:11.197Z,8.00
2018-05-25T03:39:39.273Z,7.43
2018-05-25T03:42:07.317Z,7.40
2018-05-25T03:44:35.371Z,7.33
2018-05-25T03:47:03.798Z,7.10
2018-05-25T03:49:31.845Z,6.97
2018-05-25T03:51:59.897Z,6.63
2018-05-25T03:54:28.111Z,7.03
2018-05-25T03:56:56.146Z,6.73
2018-05-25T03:59:36.438Z,7.37
2018-05-25T04:02:04.498Z,6.60
2018-05-25T04:04:32.844Z,6.57
2018-05-25T04:07:01.264Z,6.07
2018-05-25T04:09:29.314Z,6.37
2018-05-25T04:11:57.366Z,6.30
2018-05-25T04:14:26.404Z,6.57
2018-05-25T04:16:54.435Z,6.43
2018-05-25T04:19:22.468Z,6.00
2018-05-25T04:21:50.553Z,6.23
2018-05-25T04:24:18.597Z,5.73
2018-05-25T04:26:46.680Z,5.90
2018-05-25T04:29:14.947Z,6.43
2018-05-25T04:31:43.047Z,5.83
2018-05-25T04:34:11.116Z,6.17
2018-05-25T04:36:39.374Z,5.90
2018-05-25T04:39:07.432Z,5.53
2018-05-25T04:41:35.468Z,5.90
2018-05-25T04:44:03.669Z,6.40
2018-05-25T04:46:31.721Z,5.73
2018-05-25T04:48:59.757Z,5.67
2018-05-25T04:51:27.840Z,5.53
2018-05-25T04:53:56.661Z,5.60
2018-05-25T04:56:24.718Z,5.63
2018-05-25T04:58:52.831Z,5.70
2018-05-25T18:02:39.827Z,10.80
2018-05-25T18:05:07.872Z,27.80
2018-05-25T18:07:35.912Z,20.83
2018-05-25T18:10:05.824Z,15.90
2018-05-25T18:12:33.860Z,21.73
2018-05-25T18:15:01.920Z,21.10
2018-05-25T18:17:30.179Z,19.50
2018-05-25T18:19:59.030Z,23.90
2018-05-25T18:22:27.072Z,44.50
2018-05-25T18:24:56.024Z,21.07
2018-05-25T18:27:24.073Z,22.50
2018-05-25T18:29:52.120Z,18.97
2018-05-25T18:32:20.383Z,41.97
2018-05-25T18:34:48.420Z,17.97
2018-05-25T18:37:16.461Z,19.67
2018-05-25T18:39:44.969Z,8.50
2018-05-25T18:42:13.008Z,15.03
2018-05-25T18:44:41.068Z,18.77
2018-05-25T18:47:09.371Z,16.10
2018-05-25T18:49:37.423Z,18.73
2018-05-25T18:52:06.292Z,14.93
2018-05-25T18:54:34.433Z,15.37
2018-05-25T18:57:02.481Z,22.80
2018-05-25T18:59:30.521Z,18.13
2018-05-25T19:01:58.861Z,25.10
2018-05-25T19:04:27.203Z,16.00
2018-05-25T19:06:55.255Z,10.50
2018-05-25T19:09:24.286Z,42.10
2018-05-25T19:11:52.347Z,34.17
2018-05-25T19:14:20.408Z,37.40
2018-05-25T19:16:48.494Z,25.47
2018-05-25T19:19:16.533Z,24.47
2018-05-25T19:21:45.393Z,24.23
2018-05-25T19:24:14.564Z,19.87
2018-05-25T19:26:42.626Z,17.90
2018-05-25T19:29:10.706Z,16.07
2018-05-25T19:31:38.795Z,16.30
2018-05-25T19:34:06.868Z,16.13
2018-05-25T19:36:34.921Z,13.80
2018-05-25T19:39:03.309Z,10.13
2018-05-25T19:41:31.382Z,10.87
2018-05-25T19:43:59.436Z,12.37
2018-05-25T19:46:27.683Z,13.80
2018-05-25T19:48:56.522Z,12.63
2018-05-25T19:51:24.658Z,13.10
2018-05-25T19:53:52.745Z,12.17
2018-05-25T19:56:20.878Z,12.00
2018-05-25T19:58:48.961Z,9.40
